sensor_id;sensor_type;location;lat;lon;timestamp;P1;durP1;ratioP1;P2;durP2;ratioP2
24216;SDS011;12356;49.386;8.688;2023-02-01T00:02:28;6.45;;;3.50;;
24216;SDS011;12356;49.386;8.688;2023-02-01T00:04:58;5.93;;;3.85;;
24216;SDS011;12356;49.386;8.688;2023-02-01T00:07:29;6.10;;;3.67;;
24216;SDS011;12356;49.386;8.688;2023-02-01T00:10:00;5.57;;;3.85;;
24216;SDS011;12356;49.386;8.688;2023-02-01T00:12:31;5.45;;;4.00;;
24216;SDS011;12356;49.386;8.688;2023-02-01T00:15:01;5.68;;;4.00;;
24216;SDS011;12356;49.386;8.688;2023-02-01T00:17:32;7.28;;;3.95;;
24216;SDS011;12356;49.386;8.688;2023-02-01T00:20:03;6.68;;;3.78;;
24216;SDS011;12356;49.386;8.688;2023-02-01T00:22:34;6.28;;;4.05;;
24216;SDS011;12356;49.386;8.688;2023-02-01T00:25:05;5.38;;;3.95;;
24216;SDS011;12356;49.386;8.688;2023-02-01T00:27:36;8.18;;;4.40;;
24216;SDS011;12356;49.386;8.688;2023-02-01T00:30:07;6.35;;;4.10;;
24216;SDS011;12356;49.386;8.688;2023-02-01T00:32:38;6.72;;;4.10;;
24216;SDS011;12356;49.386;8.688;2023-02-01T00:35:09;5.85;;;4.20;;
24216;SDS011;12356;49.386;8.688;2023-02-01T00:37:39;6.28;;;4.18;;
24216;SDS011;12356;49.386;8.688;2023-02-01T00:40:10;7.05;;;4.35;;
24216;SDS011;12356;49.386;8.688;2023-02-01T00:42:41;8.32;;;4.78;;
24216;SDS011;12356;49.386;8.688;2023-02-01T00:45:12;7.82;;;4.30;;
24216;SDS011;12356;49.386;8.688;2023-02-01T00:47:42;6.43;;;4.40;;
24216;SDS011;12356;49.386;8.688;2023-02-01T00:50:13;7.20;;;4.63;;
24216;SDS011;12356;49.386;8.688;2023-02-01T00:52:44;5.90;;;4.10;;
24216;SDS011;12356;49.386;8.688;2023-02-01T00:55:14;7.13;;;4.63;;
24216;SDS011;12356;49.386;8.688;2023-02-01T00:57:45;8.02;;;4.85;;
24216;SDS011;12356;49.386;8.688;2023-02-01T01:00:16;7.78;;;4.45;;
24216;SDS011;12356;49.386;8.688;2023-02-01T01:02:47;5.88;;;4.30;;
24216;SDS011;12356;49.386;8.688;2023-02-01T01:05:17;7.07;;;4.10;;
24216;SDS011;12356;49.386;8.688;2023-02-01T01:07:48;7.05;;;4.10;;
24216;SDS011;12356;49.386;8.688;2023-02-01T01:10:19;6.47;;;4.13;;
24216;SDS011;12356;49.386;8.688;2023-02-01T01:12:50;6.35;;;4.40;;
24216;SDS011;12356;49.386;8.688;2023-02-01T01:15:21;7.32;;;4.40;;
24216;SDS011;12356;49.386;8.688;2023-02-01T01:17:52;10.80;;;4.50;;
24216;SDS011;12356;49.386;8.688;2023-02-01T01:20:22;7.30;;;4.60;;
24216;SDS011;12356;49.386;8.688;2023-02-01T01:22:53;7.53;;;4.40;;
24216;SDS011;12356;49.386;8.688;2023-02-01T01:25:24;7.47;;;4.13;;
24216;SDS011;12356;49.386;8.688;2023-02-01T01:27:54;6.55;;;4.18;;
24216;SDS011;12356;49.386;8.688;2023-02-01T01:30:25;6.75;;;4.28;;
24216;SDS011;12356;49.386;8.688;2023-02-01T01:32:55;6.63;;;4.22;;
24216;SDS011;12356;49.386;8.688;2023-02-01T01:35:28;7.13;;;4.30;;
24216;SDS011;12356;49.386;8.688;2023-02-01T01:38:00;6.65;;;4.50;;
24216;SDS011;12356;49.386;8.688;2023-02-01T01:40:31;8.10;;;4.13;;
24216;SDS011;12356;49.386;8.688;2023-02-01T01:43:02;6.32;;;4.20;;
24216;SDS011;12356;49.386;8.688;2023-02-01T01:45:33;8.60;;;4.55;;
24216;SDS011;12356;49.386;8.688;2023-02-01T01:50:51;8.02;;;4.70;;
24216;SDS011;12356;49.386;8.688;2023-02-01T01:53:26;6.95;;;4.43;;
24216;SDS011;12356;49.386;8.688;2023-02-01T01:56:01;7.47;;;4.60;;
24216;SDS011;12356;49.386;8.688;2023-02-01T01:58:32;7.93;;;4.50;;
24216;SDS011;12356;49.386;8.688;2023-02-01T02:01:04;7.85;;;4.65;;
24216;SDS011;12356;49.386;8.688;2023-02-01T02:03:35;9.35;;;4.35;;
24216;SDS011;12356;49.386;8.688;2023-02-01T02:06:16;7.70;;;4.13;;
24216;SDS011;12356;49.386;8.688;2023-02-01T02:09:08;6.10;;;4.18;;
24216;SDS011;12356;49.386;8.688;2023-02-01T02:11:39;7.30;;;4.47;;
24216;SDS011;12356;49.386;8.688;2023-02-01T02:14:11;7.82;;;4.90;;
24216;SDS011;12356;49.386;8.688;2023-02-01T02:31:04;9.10;;;4.38;;
24216;SDS011;12356;49.386;8.688;2023-02-01T02:39:41;8.55;;;4.85;;
24216;SDS011;12356;49.386;8.688;2023-02-01T02:52:17;9.85;;;5.50;;
24216;SDS011;12356;49.386;8.688;2023-02-01T02:55:09;8.70;;;5.13;;
24216;SDS011;12356;49.386;8.688;2023-02-01T02:57:41;9.10;;;5.60;;
24216;SDS011;12356;49.386;8.688;2023-02-01T03:00:33;8.25;;;4.90;;
24216;SDS011;12356;49.386;8.688;2023-02-01T03:03:23;9.57;;;5.15;;
24216;SDS011;12356;49.386;8.688;2023-02-01T03:06:16;8.32;;;4.80;;
24216;SDS011;12356;49.386;8.688;2023-02-01T03:08:48;8.52;;;4.97;;
24216;SDS011;12356;49.386;8.688;2023-02-01T03:11:26;8.48;;;4.95;;
24216;SDS011;12356;49.386;8.688;2023-02-01T03:14:18;11.02;;;4.97;;
24216;SDS011;12356;49.386;8.688;2023-02-01T03:16:54;7.50;;;4.78;;
24216;SDS011;12356;49.386;8.688;2023-02-01T03:19:32;10.02;;;4.90;;
24216;SDS011;12356;49.386;8.688;2023-02-01T03:22:08;6.88;;;4.55;;
24216;SDS011;12356;49.386;8.688;2023-02-01T03:29:56;7.95;;;4.50;;
24216;SDS011;12356;49.386;8.688;2023-02-01T03:32:48;7.93;;;4.53;;
24216;SDS011;12356;49.386;8.688;2023-02-01T03:35:30;9.68;;;4.47;;
24216;SDS011;12356;49.386;8.688;2023-02-01T03:38:05;7.10;;;4.20;;
24216;SDS011;12356;49.386;8.688;2023-02-01T03:41:01;8.27;;;4.78;;
24216;SDS011;12356;49.386;8.688;2023-02-01T03:43:42;7.28;;;4.63;;
24216;SDS011;12356;49.386;8.688;2023-02-01T03:46:30;6.88;;;4.63;;
24216;SDS011;12356;49.386;8.688;2023-02-01T03:49:33;9.30;;;5.13;;
24216;SDS011;12356;49.386;8.688;2023-02-01T03:52:14;8.57;;;4.65;;
24216;SDS011;12356;49.386;8.688;2023-02-01T03:54:51;8.52;;;5.00;;
24216;SDS011;12356;49.386;8.688;2023-02-01T03:57:45;9.40;;;5.03;;
24216;SDS011;12356;49.386;8.688;2023-02-01T04:00:17;7.82;;;4.70;;
24216;SDS011;12356;49.386;8.688;2023-02-01T04:02:52;8.48;;;4.95;;
24216;SDS011;12356;49.386;8.688;2023-02-01T04:05:23;10.95;;;5.65;;
24216;SDS011;12356;49.386;8.688;2023-02-01T04:07:53;9.32;;;5.18;;
24216;SDS011;12356;49.386;8.688;2023-02-01T04:10:24;8.35;;;4.82;;
24216;SDS011;12356;49.386;8.688;2023-02-01T04:12:55;10.70;;;5.38;;
24216;SDS011;12356;49.386;8.688;2023-02-01T04:15:25;8.20;;;5.22;;
24216;SDS011;12356;49.386;8.688;2023-02-01T04:17:56;9.38;;;5.03;;
24216;SDS011;12356;49.386;8.688;2023-02-01T04:20:27;9.93;;;5.00;;
24216;SDS011;12356;49.386;8.688;2023-02-01T04:22:58;10.27;;;5.25;;
24216;SDS011;12356;49.386;8.688;2023-02-01T04:25:29;9.02;;;5.03;;
24216;SDS011;12356;49.386;8.688;2023-02-01T04:27:59;9.15;;;5.53;;
24216;SDS011;12356;49.386;8.688;2023-02-01T04:30:30;11.20;;;5.30;;
24216;SDS011;12356;49.386;8.688;2023-02-01T04:33:01;9.95;;;5.18;;
24216;SDS011;12356;49.386;8.688;2023-02-01T04:35:35;9.05;;;5.28;;
24216;SDS011;12356;49.386;8.688;2023-02-01T04:38:05;10.60;;;5.40;;
24216;SDS011;12356;49.386;8.688;2023-02-01T04:40:36;9.38;;;5.10;;
24216;SDS011;12356;49.386;8.688;2023-02-01T04:43:07;9.00;;;5.22;;
24216;SDS011;12356;49.386;8.688;2023-02-01T04:45:38;8.43;;;5.35;;
24216;SDS011;12356;49.386;8.688;2023-02-01T04:48:09;10.77;;;4.93;;
24216;SDS011;12356;49.386;8.688;2023-02-01T04:50:39;9.30;;;5.28;;
24216;SDS011;12356;49.386;8.688;2023-02-01T04:53:10;7.93;;;5.07;;
24216;SDS011;12356;49.386;8.688;2023-02-01T04:55:41;8.68;;;4.95;;
24216;SDS011;12356;49.386;8.688;2023-02-01T04:58:12;10.38;;;5.65;;
24216;SDS011;12356;49.386;8.688;2023-02-01T05:00:42;11.05;;;5.05;;
24216;SDS011;12356;49.386;8.688;2023-02-01T05:03:13;10.73;;;5.60;;
24216;SDS011;12356;49.386;8.688;2023-02-01T05:05:44;9.95;;;5.15;;
24216;SDS011;12356;49.386;8.688;2023-02-01T05:08:15;7.88;;;5.07;;
24216;SDS011;12356;49.386;8.688;2023-02-01T05:10:45;9.02;;;5.20;;
24216;SDS011;12356;49.386;8.688;2023-02-01T05:13:16;11.95;;;5.07;;
24216;SDS011;12356;49.386;8.688;2023-02-01T05:16:05;8.55;;;5.32;;
24216;SDS011;12356;49.386;8.688;2023-02-01T05:18:36;8.93;;;5.40;;
24216;SDS011;12356;49.386;8.688;2023-02-01T05:21:07;8.75;;;5.10;;
24216;SDS011;12356;49.386;8.688;2023-02-01T05:23:38;8.85;;;5.15;;
24216;SDS011;12356;49.386;8.688;2023-02-01T05:26:31;9.90;;;4.97;;
24216;SDS011;12356;49.386;8.688;2023-02-01T05:29:02;10.50;;;4.75;;
24216;SDS011;12356;49.386;8.688;2023-02-01T05:31:34;7.63;;;4.57;;
24216;SDS011;12356;49.386;8.688;2023-02-01T05:34:05;7.15;;;4.43;;
24216;SDS011;12356;49.386;8.688;2023-02-01T05:36:36;6.30;;;3.72;;
24216;SDS011;12356;49.386;8.688;2023-02-01T05:39:07;9.20;;;4.13;;
24216;SDS011;12356;49.386;8.688;2023-02-01T05:41:38;6.07;;;3.80;;
24216;SDS011;12356;49.386;8.688;2023-02-01T05:44:09;6.45;;;3.95;;
24216;SDS011;12356;49.386;8.688;2023-02-01T05:46:41;6.88;;;4.20;;
24216;SDS011;12356;49.386;8.688;2023-02-01T05:49:11;5.20;;;4.07;;
24216;SDS011;12356;49.386;8.688;2023-02-01T05:51:42;8.07;;;4.30;;
24216;SDS011;12356;49.386;8.688;2023-02-01T05:54:12;8.18;;;4.35;;
24216;SDS011;12356;49.386;8.688;2023-02-01T05:56:43;6.90;;;4.28;;
24216;SDS011;12356;49.386;8.688;2023-02-01T05:59:14;7.90;;;4.50;;
24216;SDS011;12356;49.386;8.688;2023-02-01T06:01:44;12.45;;;4.82;;
24216;SDS011;12356;49.386;8.688;2023-02-01T06:04:15;7.90;;;4.45;;
24216;SDS011;12356;49.386;8.688;2023-02-01T06:06:45;8.48;;;4.75;;
24216;SDS011;12356;49.386;8.688;2023-02-01T06:09:16;7.85;;;5.25;;
24216;SDS011;12356;49.386;8.688;2023-02-01T06:11:47;8.55;;;4.90;;
24216;SDS011;12356;49.386;8.688;2023-02-01T06:14:17;7.80;;;4.65;;
24216;SDS011;12356;49.386;8.688;2023-02-01T06:16:48;8.48;;;5.03;;
24216;SDS011;12356;49.386;8.688;2023-02-01T06:19:19;8.32;;;4.95;;
24216;SDS011;12356;49.386;8.688;2023-02-01T06:21:49;8.68;;;4.82;;
24216;SDS011;12356;49.386;8.688;2023-02-01T06:24:20;10.98;;;5.13;;
24216;SDS011;12356;49.386;8.688;2023-02-01T06:26:50;10.25;;;4.97;;
24216;SDS011;12356;49.386;8.688;2023-02-01T06:29:21;10.02;;;4.80;;
24216;SDS011;12356;49.386;8.688;2023-02-01T06:31:52;11.10;;;4.85;;
24216;SDS011;12356;49.386;8.688;2023-02-01T06:34:22;9.70;;;4.80;;
24216;SDS011;12356;49.386;8.688;2023-02-01T06:36:53;12.05;;;5.45;;
24216;SDS011;12356;49.386;8.688;2023-02-01T06:39:24;8.38;;;4.82;;
24216;SDS011;12356;49.386;8.688;2023-02-01T06:41:57;9.20;;;4.80;;
24216;SDS011;12356;49.386;8.688;2023-02-01T06:44:27;11.43;;;5.45;;
24216;SDS011;12356;49.386;8.688;2023-02-01T06:46:58;10.48;;;4.90;;
24216;SDS011;12356;49.386;8.688;2023-02-01T06:49:29;11.68;;;4.85;;
24216;SDS011;12356;49.386;8.688;2023-02-01T06:52:00;8.90;;;5.07;;
24216;SDS011;12356;49.386;8.688;2023-02-01T06:54:30;10.55;;;5.25;;
24216;SDS011;12356;49.386;8.688;2023-02-01T06:57:03;8.45;;;5.28;;
24216;SDS011;12356;49.386;8.688;2023-02-01T06:59:34;13.68;;;5.28;;
24216;SDS011;12356;49.386;8.688;2023-02-01T07:02:05;10.18;;;5.57;;
24216;SDS011;12356;49.386;8.688;2023-02-01T07:04:35;12.98;;;5.25;;
24216;SDS011;12356;49.386;8.688;2023-02-01T07:07:06;11.40;;;5.40;;
24216;SDS011;12356;49.386;8.688;2023-02-01T07:09:36;9.73;;;5.18;;
24216;SDS011;12356;49.386;8.688;2023-02-01T07:12:07;9.52;;;5.32;;
24216;SDS011;12356;49.386;8.688;2023-02-01T07:14:38;13.50;;;6.05;;
24216;SDS011;12356;49.386;8.688;2023-02-01T07:17:08;10.07;;;5.50;;
24216;SDS011;12356;49.386;8.688;2023-02-01T07:19:39;11.00;;;6.35;;
24216;SDS011;12356;49.386;8.688;2023-02-01T07:22:09;10.68;;;6.10;;
24216;SDS011;12356;49.386;8.688;2023-02-01T07:24:40;9.85;;;5.55;;
24216;SDS011;12356;49.386;8.688;2023-02-01T07:27:11;12.25;;;5.47;;
24216;SDS011;12356;49.386;8.688;2023-02-01T07:29:42;10.88;;;5.93;;
24216;SDS011;12356;49.386;8.688;2023-02-01T07:32:12;13.30;;;5.30;;
24216;SDS011;12356;49.386;8.688;2023-02-01T07:34:43;9.63;;;5.07;;
24216;SDS011;12356;49.386;8.688;2023-02-01T07:37:14;9.77;;;5.00;;
24216;SDS011;12356;49.386;8.688;2023-02-01T07:39:45;10.52;;;4.63;;
24216;SDS011;12356;49.386;8.688;2023-02-01T07:42:16;11.75;;;4.85;;
24216;SDS011;12356;49.386;8.688;2023-02-01T07:44:47;9.68;;;4.38;;
24216;SDS011;12356;49.386;8.688;2023-02-01T07:47:17;11.23;;;4.65;;
24216;SDS011;12356;49.386;8.688;2023-02-01T07:49:48;9.85;;;4.10;;
24216;SDS011;12356;49.386;8.688;2023-02-01T07:52:18;9.02;;;4.25;;
24216;SDS011;12356;49.386;8.688;2023-02-01T07:54:49;10.05;;;4.20;;
24216;SDS011;12356;49.386;8.688;2023-02-01T07:57:20;6.25;;;3.70;;
24216;SDS011;12356;49.386;8.688;2023-02-01T07:59:50;10.18;;;4.88;;
24216;SDS011;12356;49.386;8.688;2023-02-01T08:02:39;11.30;;;5.45;;
24216;SDS011;12356;49.386;8.688;2023-02-01T08:05:10;13.93;;;5.50;;
24216;SDS011;12356;49.386;8.688;2023-02-01T08:07:41;11.45;;;5.43;;
24216;SDS011;12356;49.386;8.688;2023-02-01T08:10:11;16.83;;;5.90;;
24216;SDS011;12356;49.386;8.688;2023-02-01T08:12:43;16.88;;;6.03;;
24216;SDS011;12356;49.386;8.688;2023-02-01T08:15:17;10.77;;;5.50;;
24216;SDS011;12356;49.386;8.688;2023-02-01T08:17:48;13.52;;;5.30;;
24216;SDS011;12356;49.386;8.688;2023-02-01T08:20:20;15.45;;;6.70;;
24216;SDS011;12356;49.386;8.688;2023-02-01T08:22:55;12.55;;;5.35;;
24216;SDS011;12356;49.386;8.688;2023-02-01T08:25:26;17.13;;;6.13;;
24216;SDS011;12356;49.386;8.688;2023-02-01T08:27:57;14.18;;;5.63;;
24216;SDS011;12356;49.386;8.688;2023-02-01T08:30:28;13.55;;;5.85;;
24216;SDS011;12356;49.386;8.688;2023-02-01T08:32:58;11.52;;;5.32;;
24216;SDS011;12356;49.386;8.688;2023-02-01T08:35:31;13.27;;;5.68;;
24216;SDS011;12356;49.386;8.688;2023-02-01T08:38:02;13.02;;;5.53;;
24216;SDS011;12356;49.386;8.688;2023-02-01T08:40:32;12.23;;;5.15;;
24216;SDS011;12356;49.386;8.688;2023-02-01T08:43:03;16.38;;;6.35;;
24216;SDS011;12356;49.386;8.688;2023-02-01T08:45:34;16.90;;;5.88;;
24216;SDS011;12356;49.386;8.688;2023-02-01T08:48:04;13.63;;;5.93;;
24216;SDS011;12356;49.386;8.688;2023-02-01T08:50:35;17.50;;;5.95;;
24216;SDS011;12356;49.386;8.688;2023-02-01T08:53:06;17.20;;;5.95;;
24216;SDS011;12356;49.386;8.688;2023-02-01T08:55:36;14.77;;;5.65;;
24216;SDS011;12356;49.386;8.688;2023-02-01T08:58:07;15.27;;;5.80;;
24216;SDS011;12356;49.386;8.688;2023-02-01T09:00:38;11.38;;;5.82;;
24216;SDS011;12356;49.386;8.688;2023-02-01T09:03:09;13.10;;;5.60;;
24216;SDS011;12356;49.386;8.688;2023-02-01T09:05:40;14.48;;;5.50;;
24216;SDS011;12356;49.386;8.688;2023-02-01T09:08:11;16.90;;;6.15;;
24216;SDS011;12356;49.386;8.688;2023-02-01T09:10:44;14.55;;;5.70;;
24216;SDS011;12356;49.386;8.688;2023-02-01T09:13:15;16.42;;;6.18;;
24216;SDS011;12356;49.386;8.688;2023-02-01T09:15:46;13.88;;;6.10;;
24216;SDS011;12356;49.386;8.688;2023-02-01T09:18:16;16.85;;;5.72;;
24216;SDS011;12356;49.386;8.688;2023-02-01T09:20:47;15.35;;;5.88;;
24216;SDS011;12356;49.386;8.688;2023-02-01T09:23:18;15.30;;;5.70;;
24216;SDS011;12356;49.386;8.688;2023-02-01T09:25:50;18.77;;;5.80;;
24216;SDS011;12356;49.386;8.688;2023-02-01T09:28:21;18.30;;;5.80;;
24216;SDS011;12356;49.386;8.688;2023-02-01T09:30:56;16.20;;;5.55;;
24216;SDS011;12356;49.386;8.688;2023-02-01T09:33:30;16.48;;;5.30;;
24216;SDS011;12356;49.386;8.688;2023-02-01T09:36:02;16.65;;;5.78;;
24216;SDS011;12356;49.386;8.688;2023-02-01T09:38:34;16.13;;;5.40;;
24216;SDS011;12356;49.386;8.688;2023-02-01T09:41:20;15.52;;;5.35;;
24216;SDS011;12356;49.386;8.688;2023-02-01T09:47:02;17.17;;;5.20;;
24216;SDS011;12356;49.386;8.688;2023-02-01T09:49:33;13.85;;;5.53;;
24216;SDS011;12356;49.386;8.688;2023-02-01T09:52:12;10.57;;;4.53;;
24216;SDS011;12356;49.386;8.688;2023-02-01T09:54:52;11.55;;;5.10;;
24216;SDS011;12356;49.386;8.688;2023-02-01T09:57:36;16.98;;;5.18;;
24216;SDS011;12356;49.386;8.688;2023-02-01T10:00:15;14.03;;;5.03;;
24216;SDS011;12356;49.386;8.688;2023-02-01T10:03:16;15.55;;;4.93;;
24216;SDS011;12356;49.386;8.688;2023-02-01T10:15:14;18.00;;;5.05;;
24216;SDS011;12356;49.386;8.688;2023-02-01T10:17:55;16.83;;;4.65;;
24216;SDS011;12356;49.386;8.688;2023-02-01T10:26:45;14.13;;;3.50;;
24216;SDS011;12356;49.386;8.688;2023-02-01T10:29:26;17.10;;;4.38;;
24216;SDS011;12356;49.386;8.688;2023-02-01T10:32:16;17.00;;;3.50;;
24216;SDS011;12356;49.386;8.688;2023-02-01T10:34:52;17.10;;;3.80;;
24216;SDS011;12356;49.386;8.688;2023-02-01T10:37:31;10.23;;;3.15;;
24216;SDS011;12356;49.386;8.688;2023-02-01T10:40:15;15.65;;;3.20;;
24216;SDS011;12356;49.386;8.688;2023-02-01T10:43:01;14.68;;;3.08;;
24216;SDS011;12356;49.386;8.688;2023-02-01T10:45:32;18.75;;;3.60;;
24216;SDS011;12356;49.386;8.688;2023-02-01T10:48:04;16.77;;;3.42;;
24216;SDS011;12356;49.386;8.688;2023-02-01T10:50:46;13.57;;;3.30;;
24216;SDS011;12356;49.386;8.688;2023-02-01T10:56:18;14.70;;;3.00;;
24216;SDS011;12356;49.386;8.688;2023-02-01T10:59:00;13.35;;;3.30;;
24216;SDS011;12356;49.386;8.688;2023-02-01T11:01:42;13.95;;;3.80;;
24216;SDS011;12356;49.386;8.688;2023-02-01T11:04:20;18.85;;;3.50;;
24216;SDS011;12356;49.386;8.688;2023-02-01T11:07:29;9.95;;;2.85;;
24216;SDS011;12356;49.386;8.688;2023-02-01T11:09:54;18.15;;;3.40;;
24216;SDS011;12356;49.386;8.688;2023-02-01T11:12:28;12.90;;;3.75;;
24216;SDS011;12356;49.386;8.688;2023-02-01T11:15:14;11.05;;;2.63;;
24216;SDS011;12356;49.386;8.688;2023-02-01T11:17:49;12.38;;;2.78;;
24216;SDS011;12356;49.386;8.688;2023-02-01T11:23:02;12.57;;;2.70;;
24216;SDS011;12356;49.386;8.688;2023-02-01T11:25:33;12.60;;;2.95;;
24216;SDS011;12356;49.386;8.688;2023-02-01T11:28:07;13.57;;;3.03;;
24216;SDS011;12356;49.386;8.688;2023-02-01T11:30:38;20.00;;;3.77;;
24216;SDS011;12356;49.386;8.688;2023-02-01T11:33:17;12.20;;;2.70;;
24216;SDS011;12356;49.386;8.688;2023-02-01T11:35:50;17.60;;;3.60;;
24216;SDS011;12356;49.386;8.688;2023-02-01T11:38:27;15.88;;;3.03;;
24216;SDS011;12356;49.386;8.688;2023-02-01T11:43:50;16.45;;;3.30;;
24216;SDS011;12356;49.386;8.688;2023-02-01T11:46:24;13.88;;;3.53;;
24216;SDS011;12356;49.386;8.688;2023-02-01T11:49:15;17.63;;;4.43;;
24216;SDS011;12356;49.386;8.688;2023-02-01T12:03:15;18.27;;;3.20;;
24216;SDS011;12356;49.386;8.688;2023-02-01T12:26:20;14.43;;;3.30;;
24216;SDS011;12356;49.386;8.688;2023-02-01T12:29:17;14.90;;;3.10;;
24216;SDS011;12356;49.386;8.688;2023-02-01T12:31:56;12.98;;;3.05;;
24216;SDS011;12356;49.386;8.688;2023-02-01T12:34:52;18.80;;;3.53;;
24216;SDS011;12356;49.386;8.688;2023-02-01T12:37:59;14.98;;;3.20;;
24216;SDS011;12356;49.386;8.688;2023-02-01T12:41:09;15.43;;;3.20;;
24216;SDS011;12356;49.386;8.688;2023-02-01T12:46:58;18.38;;;3.58;;
24216;SDS011;12356;49.386;8.688;2023-02-01T12:52:13;13.68;;;2.97;;
24216;SDS011;12356;49.386;8.688;2023-02-01T12:54:58;12.38;;;3.15;;
24216;SDS011;12356;49.386;8.688;2023-02-01T12:57:37;17.42;;;3.38;;
24216;SDS011;12356;49.386;8.688;2023-02-01T13:03:05;15.75;;;3.10;;
24216;SDS011;12356;49.386;8.688;2023-02-01T13:06:04;14.43;;;2.85;;
24216;SDS011;12356;49.386;8.688;2023-02-01T13:08:55;11.82;;;2.88;;
24216;SDS011;12356;49.386;8.688;2023-02-01T13:11:45;10.82;;;2.80;;
24216;SDS011;12356;49.386;8.688;2023-02-01T13:14:27;13.15;;;2.72;;
24216;SDS011;12356;49.386;8.688;2023-02-01T13:17:04;16.10;;;2.88;;
24216;SDS011;12356;49.386;8.688;2023-02-01T13:22:22;12.25;;;3.25;;
24216;SDS011;12356;49.386;8.688;2023-02-01T13:37:05;13.77;;;2.67;;
24216;SDS011;12356;49.386;8.688;2023-02-01T13:43:18;10.60;;;2.55;;
24216;SDS011;12356;49.386;8.688;2023-02-01T13:45:57;13.27;;;2.72;;
24216;SDS011;12356;49.386;8.688;2023-02-01T13:48:39;13.30;;;3.00;;
24216;SDS011;12356;49.386;8.688;2023-02-01T13:51:17;12.00;;;2.70;;
24216;SDS011;12356;49.386;8.688;2023-02-01T13:54:04;11.40;;;2.80;;
24216;SDS011;12356;49.386;8.688;2023-02-01T13:56:39;12.57;;;2.50;;
24216;SDS011;12356;49.386;8.688;2023-02-01T14:02:35;10.55;;;2.60;;
24216;SDS011;12356;49.386;8.688;2023-02-01T14:24:00;14.18;;;2.63;;
24216;SDS011;12356;49.386;8.688;2023-02-01T14:26:55;12.80;;;2.63;;
24216;SDS011;12356;49.386;8.688;2023-02-01T14:29:33;18.02;;;3.00;;
24216;SDS011;12356;49.386;8.688;2023-02-01T14:32:18;13.65;;;2.90;;
24216;SDS011;12356;49.386;8.688;2023-02-01T14:34:51;14.20;;;2.92;;
24216;SDS011;12356;49.386;8.688;2023-02-01T14:37:28;12.15;;;2.45;;
24216;SDS011;12356;49.386;8.688;2023-02-01T14:40:03;11.80;;;3.10;;
24216;SDS011;12356;49.386;8.688;2023-02-01T14:42:44;14.00;;;2.63;;
24216;SDS011;12356;49.386;8.688;2023-02-01T14:50:46;11.98;;;3.15;;
24216;SDS011;12356;49.386;8.688;2023-02-01T14:53:22;13.77;;;3.15;;
24216;SDS011;12356;49.386;8.688;2023-02-01T14:56:06;10.50;;;2.70;;
24216;SDS011;12356;49.386;8.688;2023-02-01T14:58:50;13.70;;;2.63;;
24216;SDS011;12356;49.386;8.688;2023-02-01T15:01:30;11.20;;;2.47;;
24216;SDS011;12356;49.386;8.688;2023-02-01T15:04:10;14.52;;;2.70;;
24216;SDS011;12356;49.386;8.688;2023-02-01T15:06:48;17.10;;;2.77;;
24216;SDS011;12356;49.386;8.688;2023-02-01T15:09:26;16.17;;;3.08;;
24216;SDS011;12356;49.386;8.688;2023-02-01T15:14:43;16.17;;;3.08;;
24216;SDS011;12356;49.386;8.688;2023-02-01T15:17:25;10.88;;;2.67;;
24216;SDS011;12356;49.386;8.688;2023-02-01T15:19:58;13.15;;;2.60;;
24216;SDS011;12356;49.386;8.688;2023-02-01T15:22:33;11.30;;;2.60;;
24216;SDS011;12356;49.386;8.688;2023-02-01T15:25:04;10.80;;;2.45;;
24216;SDS011;12356;49.386;8.688;2023-02-01T15:27:36;8.93;;;2.50;;
24216;SDS011;12356;49.386;8.688;2023-02-01T15:30:08;9.60;;;2.53;;
24216;SDS011;12356;49.386;8.688;2023-02-01T15:33:04;9.20;;;2.10;;
24216;SDS011;12356;49.386;8.688;2023-02-01T15:35:41;10.40;;;2.10;;
24216;SDS011;12356;49.386;8.688;2023-02-01T15:46:31;10.00;;;2.83;;
24216;SDS011;12356;49.386;8.688;2023-02-01T15:49:03;10.40;;;2.20;;
24216;SDS011;12356;49.386;8.688;2023-02-01T15:51:35;11.32;;;2.45;;
24216;SDS011;12356;49.386;8.688;2023-02-01T15:54:06;12.45;;;2.40;;
24216;SDS011;12356;49.386;8.688;2023-02-01T15:56:39;11.90;;;2.60;;
24216;SDS011;12356;49.386;8.688;2023-02-01T15:59:17;13.85;;;2.45;;
24216;SDS011;12356;49.386;8.688;2023-02-01T16:01:51;15.07;;;2.80;;
24216;SDS011;12356;49.386;8.688;2023-02-01T16:04:22;14.07;;;2.67;;
24216;SDS011;12356;49.386;8.688;2023-02-01T16:09:48;13.82;;;2.67;;
24216;SDS011;12356;49.386;8.688;2023-02-01T16:12:45;8.73;;;2.25;;
24216;SDS011;12356;49.386;8.688;2023-02-01T16:15:13;13.05;;;2.75;;
24216;SDS011;12356;49.386;8.688;2023-02-01T16:17:44;13.30;;;2.20;;
24216;SDS011;12356;49.386;8.688;2023-02-01T16:20:15;15.07;;;2.92;;
24216;SDS011;12356;49.386;8.688;2023-02-01T16:22:46;13.95;;;2.50;;
24216;SDS011;12356;49.386;8.688;2023-02-01T16:25:17;18.60;;;2.50;;
24216;SDS011;12356;49.386;8.688;2023-02-01T16:27:47;13.90;;;2.45;;
24216;SDS011;12356;49.386;8.688;2023-02-01T16:30:18;13.68;;;3.28;;
24216;SDS011;12356;49.386;8.688;2023-02-01T16:32:56;12.20;;;2.83;;
24216;SDS011;12356;49.386;8.688;2023-02-01T16:35:29;16.35;;;3.03;;
24216;SDS011;12356;49.386;8.688;2023-02-01T16:38:07;12.63;;;2.40;;
24216;SDS011;12356;49.386;8.688;2023-02-01T16:40:42;12.38;;;2.60;;
24216;SDS011;12356;49.386;8.688;2023-02-01T16:43:14;13.32;;;2.70;;
24216;SDS011;12356;49.386;8.688;2023-02-01T16:45:50;13.23;;;2.60;;
24216;SDS011;12356;49.386;8.688;2023-02-01T16:51:01;14.93;;;2.80;;
24216;SDS011;12356;49.386;8.688;2023-02-01T16:53:39;14.55;;;3.60;;
24216;SDS011;12356;49.386;8.688;2023-02-01T16:56:14;14.07;;;3.17;;
24216;SDS011;12356;49.386;8.688;2023-02-01T16:58:46;15.30;;;2.80;;
24216;SDS011;12356;49.386;8.688;2023-02-01T17:01:18;12.50;;;3.05;;
24216;SDS011;12356;49.386;8.688;2023-02-01T17:03:48;12.05;;;2.95;;
24216;SDS011;12356;49.386;8.688;2023-02-01T17:06:21;11.90;;;2.78;;
24216;SDS011;12356;49.386;8.688;2023-02-01T17:08:54;17.40;;;2.60;;
24216;SDS011;12356;49.386;8.688;2023-02-01T17:11:29;16.13;;;2.92;;
24216;SDS011;12356;49.386;8.688;2023-02-01T17:14:01;16.42;;;3.60;;
24216;SDS011;12356;49.386;8.688;2023-02-01T17:16:48;12.25;;;3.03;;
24216;SDS011;12356;49.386;8.688;2023-02-01T17:19:21;15.03;;;3.00;;
24216;SDS011;12356;49.386;8.688;2023-02-01T17:21:55;11.00;;;2.80;;
24216;SDS011;12356;49.386;8.688;2023-02-01T17:24:29;15.45;;;3.08;;
24216;SDS011;12356;49.386;8.688;2023-02-01T17:27:00;15.60;;;3.13;;
24216;SDS011;12356;49.386;8.688;2023-02-01T17:29:53;14.80;;;3.40;;
24216;SDS011;12356;49.386;8.688;2023-02-01T17:34:56;13.13;;;3.22;;
24216;SDS011;12356;49.386;8.688;2023-02-01T17:37:28;11.27;;;2.50;;
24216;SDS011;12356;49.386;8.688;2023-02-01T17:40:03;14.38;;;3.25;;
24216;SDS011;12356;49.386;8.688;2023-02-01T17:42:34;13.00;;;2.87;;
24216;SDS011;12356;49.386;8.688;2023-02-01T17:45:13;11.30;;;2.92;;
24216;SDS011;12356;49.386;8.688;2023-02-01T17:47:50;16.15;;;3.45;;
24216;SDS011;12356;49.386;8.688;2023-02-01T17:50:29;9.80;;;2.50;;
24216;SDS011;12356;49.386;8.688;2023-02-01T17:53:01;9.43;;;2.97;;
24216;SDS011;12356;49.386;8.688;2023-02-01T17:55:32;13.32;;;2.63;;
24216;SDS011;12356;49.386;8.688;2023-02-01T17:58:05;12.95;;;2.72;;
24216;SDS011;12356;49.386;8.688;2023-02-01T18:00:36;14.13;;;2.72;;
24216;SDS011;12356;49.386;8.688;2023-02-01T18:03:09;12.55;;;3.08;;
24216;SDS011;12356;49.386;8.688;2023-02-01T18:05:45;19.95;;;3.40;;
24216;SDS011;12356;49.386;8.688;2023-02-01T18:08:25;14.57;;;3.30;;
24216;SDS011;12356;49.386;8.688;2023-02-01T18:10:58;11.10;;;3.00;;
24216;SDS011;12356;49.386;8.688;2023-02-01T18:13:30;16.92;;;3.22;;
24216;SDS011;12356;49.386;8.688;2023-02-01T18:16:02;10.30;;;2.80;;
24216;SDS011;12356;49.386;8.688;2023-02-01T18:18:33;17.00;;;3.15;;